• Join FlightAware (Why Join?)
  • Login
  • US Flag 
03:21AM EDT


 

Airport Tracker/Info


-or-


 

Live Flight TrackerFlight Track Log ✈ TAM3858 ✈ 24-May-2013 ✈ SBSV / SSA - SBFZ / FOR

Flight Track Log - Related Links

Times and Time Zones

All times are in EDT time to prevent confusion due to time zone crossing. See the TAM3858 flight status page for this flight to view local times or setup timezone preferences in your user account.

Time Position Orientation Groundspeed Altitude Reporting Facility
EDT Latitude Longitude Course Direction KTS MPH feet Rate Location/Type
08:12PM -11.1617 -38.3704 359° North  Level Estimated
08:13PM -11.0646 -38.3726 359° North  Level Estimated
08:14PM -10.9674 -38.3748 359° North  Level Estimated
08:15PM -10.8702 -38.3770 359° North  Level Estimated
08:16PM -10.7730 -38.3791 359° North  Level Estimated
08:17PM -10.6758 -38.3813 359° North  Level Estimated
08:18PM -10.5787 -38.3835 359° North  Level Estimated
08:19PM -10.4815 -38.3856 359° North  Level Estimated
08:20PM -10.3843 -38.3878 359° North  Level Estimated
08:21PM -10.2871 -38.3900 359° North  Level Estimated
08:22PM -10.1899 -38.3921 359° North  Level Estimated
08:23PM -10.0927 -38.3943 359° North  Level Estimated
08:24PM -9.9956 -38.3965 359° North  Level Estimated
08:25PM -9.8984 -38.3986 359° North  Level Estimated
08:26PM -9.8012 -38.4008 359° North  Level Estimated
08:27PM -9.7040 -38.4029 359° North  Level Estimated
08:28PM -9.6068 -38.4051 359° North  Level Estimated
08:29PM -9.5097 -38.4072 359° North  Level Estimated
08:30PM -9.4125 -38.4094 359° North  Level Estimated
08:31PM -9.3153 -38.4115 359° North  Level Estimated
08:32PM -9.2181 -38.4137 359° North  Level Estimated
08:33PM -9.1209 -38.4158 359° North  Level Estimated
08:34PM -9.0238 -38.4180 359° North  Level Estimated
08:35PM -8.9266 -38.4201 359° North  Level Estimated
08:36PM -8.8294 -38.4223 359° North  Level Estimated
08:37PM -8.7322 -38.4244 359° North  Level Estimated
08:38PM -8.6350 -38.4266 359° North  Level Estimated
08:39PM -8.5379 -38.4287 359° North  Level Estimated
08:40PM -8.4407 -38.4308 359° North  Level Estimated
08:41PM -8.3435 -38.4330 359° North  Level Estimated
08:42PM -8.2463 -38.4351 359° North  Level Estimated
08:43PM -8.1491 -38.4373 359° North  Level Estimated
08:44PM -8.0520 -38.4394 359° North  Level Estimated
08:45PM -7.9548 -38.4415 359° North  Level Estimated
08:46PM -7.8576 -38.4437 359° North  Level Estimated
08:47PM -7.7604 -38.4458 359° North  Level Estimated
08:48PM -7.6632 -38.4479 359° North  Level Estimated
08:49PM -7.5661 -38.4501 359° North  Level Estimated
08:50PM -7.4689 -38.4522 359° North  Level Estimated
08:51PM -7.3717 -38.4543 359° North  Level Estimated
08:52PM -7.2745 -38.4565 359° North  Level Estimated
08:53PM -7.1774 -38.4586 359° North  Level Estimated
08:54PM -7.0802 -38.4607 359° North  Level Estimated
08:55PM -6.9830 -38.4628 359° North  Level Estimated
08:56PM -6.8858 -38.4650 359° North  Level Estimated
08:57PM -6.7886 -38.4671 359° North  Level Estimated
08:58PM -6.6915 -38.4692 359° North  Level Estimated
08:59PM -6.5943 -38.4713 359° North  Level Estimated
09:00PM -6.4971 -38.4734 359° North  Level Estimated
09:01PM -6.3999 -38.4756 359° North  Level Estimated
09:02PM -6.3027 -38.4777 359° North  Level Estimated
09:03PM -6.2056 -38.4798 359° North  Level Estimated
09:04PM -6.1084 -38.4819 359° North  Level Estimated
09:05PM -6.0112 -38.4840 359° North  Level Estimated
09:06PM -5.9140 -38.4862 359° North  Level Estimated
09:07PM -5.8168 -38.4883 359° North  Level Estimated
09:08PM -5.7196 -38.4904 359° North  Level Estimated
09:09PM -5.6225 -38.4925 359° North  Level Estimated
09:10PM -5.5253 -38.4946 359° North  Level Estimated
09:11PM -5.4281 -38.4967 359° North  Level Estimated
09:12PM -5.3309 -38.4988 359° North  Level Estimated
09:13PM -5.2337 -38.5009 359° North  Level Estimated
09:14PM -5.1366 -38.5031 359° North  Level Estimated
09:15PM -5.0394 -38.5052 359° North  Level Estimated
09:16PM -4.9422 -38.5073 359° North  Level Estimated
09:17PM -4.8450 -38.5094 359° North  Level Estimated
09:18PM -4.7478 -38.5115 359° North  Level Estimated
09:19PM -4.6507 -38.5136 359° North  Level Estimated
09:20PM -4.5535 -38.5157 359° North  Level Estimated
09:21PM -4.4563 -38.5178 359° North  Level Estimated
09:22PM -4.3591 -38.5199 359° North  Level Estimated
09:23PM -4.2620 -38.5220 359° North  Level Estimated
09:24PM -4.1648 -38.5242 359° North  Level Estimated
09:25PM -4.0676 -38.5262 359° North  Level Estimated
09:26PM -3.9704 -38.5284 359° North  Level Estimated
09:27PM -3.8732 -38.5305 359° North  Level Estimated
09:28PM -3.7763 -38.5326 359° North  Level Estimated
09:29PM -3.7763 -38.5326 127° Southeast  Level Estimated
09:30PM -3.7763 -38.5326 127° Southeast  Level Estimated
09:31PM -3.7763 -38.5326 127° Southeast  Level Estimated
09:32PM -3.7763 -38.5326 127° Southeast  Level Estimated
09:33PM -3.7763 -38.5326 127° Southeast  Level Estimated
09:34PM -3.7763 -38.5326 127° Southeast  Level Estimated
09:35PM -3.7763 -38.5326 127° Southeast  Level Estimated
09:36PM -3.7763 -38.5326 127° Southeast  Level Estimated
09:37PM -3.7763 -38.5326 127° Southeast  Level Estimated
09:38PM -3.7763 -38.5326 127° Southeast  Level Estimated
09:39PM -3.7763 -38.5326 127° Southeast  Level Estimated
09:40PM -3.7763 -38.5326 127° Southeast  Level Estimated
09:41PM -3.7763 -38.5326 127° Southeast  Level Estimated
09:42PM -3.7763 -38.5326 127° Southeast  Level Estimated
09:43PM -3.7763 -38.5326 127° Southeast  Level Estimated
09:44PM -3.7763 -38.5326 127° Southeast  Level Estimated